Strona główna
METAR-TAF:

METAR-TAF

Lotnisko :

Ishigaki, Japonia

Szerokość geograficzna: 24-20N, Długość geograficzna: 124-10E, wysokość: 6 m

Aktualna obserwacja pogody

Raport powstał 46 minut temu, godzina 11:00 UTC
Wiatr 3 kt od północny wschód
Temperatura 15°C
Wilgotność 72%
Ciśnienie 1024 hPa
Widzialność 10 km lub więcej
Mało chmury na wysokości 3500 ft

METAR: ROIG 191100Z 04003KT 9999 FEW035 15/10 Q1024

czas: 20:46 (11:46 UTC)

Prognoza

Raport powstał 38 minut temu, godzina 11:08 UTC
Prognoza ważna od 19 godzina 12 UTC do 20 godzina 18 UTC
Wiatr 5 kt od północny wschód
Widzialność 10 km lub więcej
Mało chmury na wysokości 3500 ft

TAF: ROIG 191108Z 1912/2018 05005KT 9999 FEW035

Obserwacja i prognoza pogody dla ponad 4000 lotnisk (raport METAR i TAF).

Dostępne stacje oznaczono żółtymi i czerwonymi punktami na mapie.

Najedź kursorem aby zobaczyć nazwę stacji.

Kliknij aby zobaczyć obserwacje i prognozy pogody.

Aby zmienić mapę: kliknij na zielony przycisk z czarnym krzyżykiem, aby powiększyć; na zielony przycisk z myślnikiem, aby pomniejszyć; na zielone strzałki, aby przejść do map sąsiednich.


METAR-TAF: